createdAt,value
2019-03-28T00:00:12.215Z,102433.48
2019-03-28T00:02:43.291Z,102431.59
2019-03-28T00:05:12.824Z,102429.17
2019-03-28T00:07:42.407Z,102430.91
2019-03-28T00:10:12.054Z,102426.87
2019-03-28T00:12:41.758Z,102436.53
2019-03-28T00:15:11.412Z,102430.91
2019-03-28T00:17:41.018Z,102430.68
2019-03-28T00:20:10.573Z,102430.14
2019-03-28T00:22:42.197Z,102425.39
2019-03-28T00:25:14.634Z,102429.98
2019-03-28T00:27:44.288Z,102430.97
2019-03-28T00:30:16.514Z,102425.84
2019-03-28T00:32:46.161Z,102422.63
2019-03-28T00:35:15.571Z,102428.48
2019-03-28T00:37:45.119Z,102423.19
2019-03-28T00:40:14.830Z,102421.23
2019-03-28T00:42:44.276Z,102425.27
2019-03-28T00:45:13.971Z,102416.59
2019-03-28T00:47:43.446Z,102415.39
2019-03-28T00:50:14.410Z,102415.04
2019-03-28T00:52:43.956Z,102415.52
2019-03-28T00:55:13.597Z,102408.03
2019-03-28T00:57:43.075Z,102404.00
2019-03-28T01:00:14.477Z,102409.69
2019-03-28T01:02:44.005Z,102403.14
2019-03-28T01:05:14.326Z,102400.50
2019-03-28T01:07:43.910Z,102401.70
2019-03-28T01:10:13.623Z,102392.63
2019-03-28T01:12:44.129Z,102400.44
2019-03-28T01:15:13.749Z,102407.90
2019-03-28T01:17:44.148Z,102408.78
2019-03-28T01:20:13.761Z,102414.28
2019-03-28T01:22:43.232Z,102403.71
2019-03-28T01:25:12.742Z,102412.84
2019-03-28T01:27:42.224Z,102414.69
2019-03-28T01:30:11.976Z,102408.08
2019-03-28T01:32:42.427Z,102407.27
2019-03-28T01:35:11.939Z,102411.70
2019-03-28T01:37:41.412Z,102412.48
2019-03-28T01:40:10.921Z,102409.34
2019-03-28T01:42:40.404Z,102409.50
2019-03-28T01:45:09.906Z,102408.71
2019-03-28T01:47:39.377Z,102413.66
2019-03-28T01:50:09.401Z,102416.42
2019-03-28T01:52:38.976Z,102419.57
2019-03-28T01:55:08.562Z,102416.59
2019-03-28T01:57:38.034Z,102418.94
2019-03-28T02:00:10.955Z,102422.00
2019-03-28T02:02:40.426Z,102413.37
2019-03-28T02:05:09.968Z,102413.37
2019-03-28T02:07:39.406Z,102422.28
2019-03-28T02:10:09.221Z,102418.19
2019-03-28T02:12:38.671Z,102414.98
2019-03-28T02:15:09.749Z,102418.19
2019-03-28T02:17:39.220Z,102420.33
2019-03-28T02:20:09.130Z,102422.44
2019-03-28T02:22:38.601Z,102422.09
2019-03-28T02:25:08.715Z,102426.53
2019-03-28T02:27:38.186Z,102426.40
2019-03-28T02:30:08.515Z,102426.58
2019-03-28T02:32:37.990Z,102429.78
2019-03-28T02:35:07.564Z,102427.64
2019-03-28T02:37:37.102Z,102431.73
2019-03-28T02:40:07.719Z,102434.38
2019-03-28T02:42:38.205Z,102433.56
2019-03-28T02:45:08.531Z,102436.62
2019-03-28T02:47:37.987Z,102441.49
2019-03-28T02:50:08.158Z,102443.16
2019-03-28T02:52:37.720Z,102440.34
2019-03-28T02:55:08.233Z,102440.69
2019-03-28T02:57:41.493Z,102441.89
2019-03-28T03:00:09.487Z,102448.15
2019-03-28T03:02:39.105Z,102443.50
2019-03-28T03:05:08.831Z,102444.41
2019-03-28T03:07:38.352Z,102444.88
2019-03-28T03:10:08.484Z,102443.09
2019-03-28T03:12:38.071Z,102440.86
2019-03-28T03:15:08.321Z,102445.30
2019-03-28T03:17:37.786Z,102444.82
2019-03-28T03:20:08.233Z,102446.70
2019-03-28T03:22:37.833Z,102447.09
2019-03-28T03:25:09.309Z,102444.38
2019-03-28T03:27:38.853Z,102450.41
2019-03-28T03:30:09.326Z,102443.97
2019-03-28T03:32:38.893Z,102451.75
2019-03-28T03:35:08.939Z,102449.69
2019-03-28T03:37:40.056Z,102447.37
2019-03-28T03:40:10.065Z,102452.16
2019-03-28T03:42:40.581Z,102457.55
2019-03-28T03:45:10.495Z,102452.66
2019-03-28T03:47:39.934Z,102455.03
2019-03-28T03:50:10.253Z,102460.52
2019-03-28T03:52:39.691Z,102458.51
2019-03-28T03:55:09.233Z,102458.16
2019-03-28T03:57:39.054Z,102460.47
2019-03-28T04:00:08.675Z,102458.30
2019-03-28T04:02:38.205Z,102456.50
2019-03-28T04:05:07.993Z,102456.84
2019-03-28T04:07:37.429Z,102467.28
2019-03-28T04:10:07.265Z,102468.81
2019-03-28T04:12:36.734Z,102473.94
2019-03-28T04:15:06.420Z,102469.84
2019-03-28T04:17:36.907Z,102474.55
2019-03-28T04:20:07.676Z,102477.19
2019-03-28T04:22:37.503Z,102474.27
2019-03-28T04:25:07.153Z,102476.64
2019-03-28T04:27:36.623Z,102473.19
2019-03-28T04:30:08.374Z,102470.55
2019-03-28T04:32:37.900Z,102474.64
2019-03-28T04:35:07.534Z,102480.63
2019-03-28T04:37:37.016Z,102481.95
2019-03-28T04:40:08.530Z,102488.26
2019-03-28T04:42:38.368Z,102491.28
2019-03-28T04:45:08.036Z,102492.50
2019-03-28T04:47:37.572Z,102486.67
2019-03-28T04:50:07.591Z,102487.92
2019-03-28T04:52:37.046Z,102486.72
2019-03-28T04:55:07.828Z,102489.62
2019-03-28T04:57:37.309Z,102490.87
2019-03-28T05:00:10.691Z,102495.89
2019-03-28T05:02:40.183Z,102491.86
2019-03-28T05:05:09.865Z,102499.72
2019-03-28T05:07:39.341Z,102495.52
2019-03-28T05:10:09.714Z,102499.99
2019-03-28T05:12:39.183Z,102502.43
2019-03-28T05:15:09.613Z,102496.94
2019-03-28T05:17:39.224Z,102511.47
2019-03-28T05:20:09.085Z,102504.19
2019-03-28T05:22:38.524Z,102512.25
2019-03-28T05:25:08.502Z,102507.53
2019-03-28T05:27:39.186Z,102513.56
2019-03-28T05:30:10.620Z,102520.17
2019-03-28T05:32:40.070Z,102511.91
2019-03-28T05:35:09.680Z,102523.12
2019-03-28T05:37:39.754Z,102514.84
2019-03-28T05:40:09.619Z,102524.47
2019-03-28T05:42:39.188Z,102525.98
2019-03-28T05:45:09.248Z,102528.05
2019-03-28T05:47:38.701Z,102530.50
2019-03-28T05:50:08.342Z,102530.03
2019-03-28T05:52:37.795Z,102539.88
2019-03-28T05:55:07.990Z,102537.06
2019-03-28T05:57:37.532Z,102543.88
2019-03-28T06:00:07.852Z,102541.46
2019-03-28T06:02:37.380Z,102542.06
2019-03-28T06:05:08.640Z,102540.47
2019-03-28T06:07:38.158Z,102542.36
2019-03-28T06:10:09.309Z,102548.76
2019-03-28T06:12:39.790Z,102539.83
2019-03-28T06:15:09.520Z,102538.86
2019-03-28T06:17:39.076Z,102546.17
2019-03-28T06:20:09.486Z,102546.88
2019-03-28T06:22:39.571Z,102552.50
2019-03-28T06:25:10.825Z,102551.25
2019-03-28T06:27:40.246Z,102551.03
2019-03-28T06:30:10.552Z,102547.19
2019-03-28T06:32:43.041Z,102543.56
2019-03-28T06:35:11.345Z,102542.59
2019-03-28T06:37:40.795Z,102541.55
2019-03-28T06:40:11.247Z,102542.77
2019-03-28T06:42:40.767Z,102542.41
2019-03-28T06:45:10.831Z,102536.55
2019-03-28T06:47:40.379Z,102539.34
2019-03-28T06:50:10.476Z,102533.48
2019-03-28T06:52:40.053Z,102536.55
2019-03-28T06:55:09.681Z,102533.37
2019-03-28T06:57:39.121Z,102537.19
2019-03-28T07:00:10.406Z,102544.55
2019-03-28T07:02:39.954Z,102545.51
2019-03-28T07:05:10.212Z,102544.30
2019-03-28T07:07:40.160Z,102546.81
2019-03-28T07:10:10.919Z,102551.94
2019-03-28T07:12:40.440Z,102543.11
2019-03-28T07:15:10.489Z,102552.47
2019-03-28T07:17:40.046Z,102544.59
2019-03-28T07:20:10.139Z,102544.55
2019-03-28T07:22:39.717Z,102544.20
2019-03-28T07:25:10.529Z,102543.53
2019-03-28T07:27:40.147Z,102547.55
2019-03-28T07:30:12.709Z,102541.06
2019-03-28T07:32:43.562Z,102545.71
2019-03-28T07:35:13.478Z,102549.30
2019-03-28T07:37:44.094Z,102542.63
2019-03-28T07:40:14.779Z,102544.72
2019-03-28T07:42:44.257Z,102548.17
2019-03-28T07:45:17.125Z,102533.39
2019-03-28T07:47:46.611Z,102534.63
2019-03-28T07:50:16.474Z,102542.41
2019-03-28T07:52:46.101Z,102548.30
2019-03-28T07:55:16.669Z,102551.66
2019-03-28T07:57:46.280Z,102551.05
2019-03-28T08:00:16.298Z,102549.60
2019-03-28T08:02:45.891Z,102554.16
2019-03-28T08:05:15.556Z,102556.11
2019-03-28T08:07:45.835Z,102558.87
2019-03-28T08:10:16.396Z,102558.09
2019-03-28T08:12:46.039Z,102557.25
2019-03-28T08:15:15.614Z,102559.51
2019-03-28T08:17:45.598Z,102558.46
2019-03-28T08:20:15.667Z,102572.29
2019-03-28T08:22:45.218Z,102571.66
2019-03-28T08:25:15.768Z,102567.34
2019-03-28T08:27:45.320Z,102569.00
2019-03-28T08:30:18.754Z,102563.88
2019-03-28T08:32:46.593Z,102567.34
2019-03-28T08:35:17.684Z,102567.44
2019-03-28T08:37:47.316Z,102567.44
2019-03-28T08:40:19.903Z,102567.94
2019-03-28T08:42:49.609Z,102569.95
2019-03-28T08:45:19.120Z,102570.64
2019-03-28T08:47:49.126Z,102575.91
2019-03-28T08:50:18.610Z,102573.77
2019-03-28T08:52:49.052Z,102575.36
2019-03-28T08:55:18.522Z,102578.42
2019-03-28T08:57:48.026Z,102581.12
2019-03-28T09:00:32.321Z,102581.06
2019-03-28T09:02:49.025Z,102589.17
2019-03-28T09:05:18.523Z,102589.45
2019-03-28T09:07:48.072Z,102587.75
2019-03-28T09:10:17.532Z,102591.34
2019-03-28T09:12:47.010Z,102597.25
2019-03-28T09:15:16.677Z,102606.55
2019-03-28T09:17:46.156Z,102599.36
2019-03-28T09:20:16.346Z,102605.63
2019-03-28T09:22:45.911Z,102604.20
2019-03-28T09:25:15.952Z,102602.38
2019-03-28T09:27:45.471Z,102598.31
2019-03-28T09:30:16.704Z,102589.88
2019-03-28T09:32:46.481Z,102582.33
2019-03-28T09:35:19.084Z,102589.70
2019-03-28T09:37:49.513Z,102595.28
2019-03-28T09:40:19.209Z,102583.02
2019-03-28T09:42:48.882Z,102583.39
2019-03-28T09:45:18.310Z,102590.19
2019-03-28T09:47:47.790Z,102589.20
2019-03-28T09:50:17.547Z,102591.03
2019-03-28T09:52:47.097Z,102583.80
2019-03-28T09:55:18.917Z,102582.77
2019-03-28T09:57:47.720Z,102586.45
2019-03-28T10:00:17.629Z,102573.19
2019-03-28T10:02:47.130Z,102575.31
2019-03-28T10:05:24.241Z,102570.08
2019-03-28T10:07:53.795Z,102572.66
2019-03-28T10:10:23.267Z,102580.10
2019-03-28T10:12:52.733Z,102578.61
2019-03-28T10:15:22.242Z,102568.05
2019-03-28T10:17:51.905Z,102567.20
2019-03-28T10:20:21.349Z,102569.37
2019-03-28T10:22:50.830Z,102574.08
2019-03-28T10:25:20.318Z,102569.18
2019-03-28T10:27:49.760Z,102567.95
2019-03-28T10:32:51.025Z,102574.02
2019-03-28T10:35:28.483Z,102573.73
2019-03-28T10:37:57.976Z,102579.30
2019-03-28T10:40:27.465Z,102574.77
2019-03-28T10:42:56.976Z,102581.89
2019-03-28T10:45:26.447Z,102577.85
2019-03-28T10:47:57.535Z,102576.96
2019-03-28T10:50:40.165Z,102574.98
2019-03-28T10:52:58.245Z,102568.76
2019-03-28T10:55:27.700Z,102578.69
2019-03-28T10:57:59.022Z,102580.81
2019-03-28T11:00:29.012Z,102582.64
2019-03-28T11:02:58.625Z,102582.29
2019-03-28T11:05:28.120Z,102579.32
2019-03-28T11:07:57.594Z,102582.48
2019-03-28T11:10:30.368Z,102579.18
2019-03-28T11:12:58.225Z,102576.23
2019-03-28T11:15:53.097Z,102574.36
2019-03-28T11:18:09.275Z,102575.55
2019-03-28T11:20:40.120Z,102579.64
2019-03-28T11:23:09.889Z,102586.58
2019-03-28T11:25:39.451Z,102590.16
2019-03-28T11:28:08.995Z,102589.84
2019-03-28T11:30:39.589Z,102579.17
2019-03-28T11:33:09.141Z,102594.26
2019-03-28T11:35:38.620Z,102595.52
2019-03-28T11:38:09.598Z,102590.48
2019-03-28T11:40:42.979Z,102586.53
2019-03-28T11:43:12.701Z,102587.61
2019-03-28T11:45:42.385Z,102585.11
2019-03-28T11:48:11.831Z,102583.91
2019-03-28T11:50:41.601Z,102583.09
2019-03-28T11:53:12.183Z,102588.88
2019-03-28T11:55:41.781Z,102582.65
2019-03-28T11:58:11.620Z,102587.91
2019-03-28T12:00:41.287Z,102581.25
2019-03-28T12:03:10.863Z,102592.74
2019-03-28T12:05:40.465Z,102595.39
2019-03-28T12:08:09.972Z,102591.17
2019-03-28T12:10:39.535Z,102593.75
2019-03-28T12:13:09.032Z,102592.87
2019-03-28T12:15:38.687Z,102593.80
2019-03-28T12:18:08.130Z,102587.11
2019-03-28T12:20:37.619Z,102593.77
2019-03-28T12:23:07.162Z,102588.61
2019-03-28T12:25:36.630Z,102592.13
2019-03-28T12:28:06.258Z,102595.45
2019-03-28T12:30:36.498Z,102591.20
2019-03-28T12:33:05.944Z,102584.85
2019-03-28T12:35:35.604Z,102584.95
2019-03-28T12:38:05.113Z,102582.82
2019-03-28T12:40:34.753Z,102576.63
2019-03-28T12:43:04.514Z,102583.15
2019-03-28T12:45:33.973Z,102589.28
2019-03-28T12:48:04.640Z,102582.52
2019-03-28T12:50:34.393Z,102581.09
2019-03-28T12:53:04.436Z,102593.86
2019-03-28T12:55:33.991Z,102595.50
2019-03-28T12:58:03.726Z,102585.84
2019-03-28T13:00:35.231Z,102590.62
2019-03-28T13:03:04.856Z,102589.11
2019-03-28T13:05:36.356Z,102583.17
2019-03-28T13:08:05.926Z,102584.06
2019-03-28T13:10:35.587Z,102578.85
2019-03-28T13:13:05.171Z,102583.82
2019-03-28T13:15:34.830Z,102585.27
2019-03-28T13:18:04.544Z,102592.54
2019-03-28T13:20:34.225Z,102591.56
2019-03-28T13:23:04.859Z,102589.56
2019-03-28T13:25:34.465Z,102588.12
2019-03-28T13:28:04.393Z,102587.73
2019-03-28T13:30:35.559Z,102586.41
2019-03-28T13:33:05.115Z,102589.39
2019-03-28T13:35:35.411Z,102592.55
2019-03-28T13:38:05.357Z,102595.07
2019-03-28T13:40:34.906Z,102588.06
2019-03-28T13:43:04.795Z,102582.87
2019-03-28T13:45:34.728Z,102586.16
2019-03-28T13:48:04.622Z,102585.91
2019-03-28T13:50:34.102Z,102585.97
2019-03-28T13:53:04.483Z,102587.55
2019-03-28T13:55:33.968Z,102583.91
2019-03-28T13:58:04.955Z,102580.62
2019-03-28T14:00:34.876Z,102575.76
2019-03-28T14:03:04.541Z,102577.59
2019-03-28T14:05:34.038Z,102574.47
2019-03-28T14:08:04.629Z,102566.94
2019-03-28T14:10:34.423Z,102566.90
2019-03-28T14:13:04.410Z,102570.09
2019-03-28T14:15:34.078Z,102565.44
2019-03-28T14:18:04.532Z,102566.70
2019-03-28T14:20:34.010Z,102566.70
2019-03-28T14:23:04.386Z,102559.02
2019-03-28T14:25:33.970Z,102562.52
2019-03-28T14:28:04.894Z,102554.80
2019-03-28T14:30:34.404Z,102559.21
2019-03-28T14:33:11.185Z,102556.48
2019-03-28T14:35:35.921Z,102558.27
2019-03-28T14:38:05.460Z,102559.25
2019-03-28T14:40:35.057Z,102549.52
2019-03-28T14:43:09.001Z,102551.31
2019-03-28T14:45:37.753Z,102564.55
2019-03-28T14:48:07.371Z,102561.34
2019-03-28T14:50:38.983Z,102564.25
2019-03-28T14:53:08.655Z,102556.67
2019-03-28T14:55:38.442Z,102554.88
2019-03-28T14:58:08.359Z,102554.88
2019-03-28T15:00:48.458Z,102553.19
2019-03-28T15:03:26.080Z,102557.05
2019-03-28T15:05:50.158Z,102562.59
2019-03-28T15:08:19.732Z,102557.48
2019-03-28T15:10:49.210Z,102557.41
2019-03-28T15:13:18.649Z,102563.51
2019-03-28T15:15:49.153Z,102560.77
2019-03-28T15:18:18.780Z,102557.54
2019-03-28T15:20:48.407Z,102562.88
2019-03-28T15:23:17.840Z,102558.45
2019-03-28T15:25:47.461Z,102562.30
2019-03-28T15:28:17.929Z,102565.78
2019-03-28T15:30:47.541Z,102563.95
2019-03-28T15:33:17.001Z,102564.72
2019-03-28T15:35:46.593Z,102560.12
2019-03-28T15:38:16.122Z,102566.55
2019-03-28T15:40:45.562Z,102559.82
2019-03-28T15:43:15.065Z,102570.20
2019-03-28T15:45:44.542Z,102566.73
2019-03-28T15:48:14.159Z,102560.17
2019-03-28T15:50:43.767Z,102558.19
2019-03-28T15:53:13.201Z,102567.88
2019-03-28T15:55:42.979Z,102565.42
2019-03-28T15:58:22.454Z,102558.89
2019-03-28T16:00:43.839Z,102562.32
2019-03-28T16:03:13.736Z,102557.38
2019-03-28T16:05:57.177Z,102561.63
2019-03-28T16:08:14.582Z,102565.45
2019-03-28T16:10:44.119Z,102564.80
2019-03-28T16:13:13.562Z,102572.20
2019-03-28T16:15:43.197Z,102572.04
2019-03-28T16:18:13.692Z,102571.92
2019-03-28T16:20:43.323Z,102572.79
2019-03-28T16:23:12.755Z,102574.33
2019-03-28T16:25:43.313Z,102576.48
2019-03-28T16:28:12.779Z,102572.95
2019-03-28T16:30:42.243Z,102579.85
2019-03-28T16:33:11.709Z,102577.52
2019-03-28T16:35:41.261Z,102576.14
2019-03-28T16:38:10.746Z,102581.58
2019-03-28T16:40:40.294Z,102581.87
2019-03-28T16:43:10.035Z,102584.27
2019-03-28T16:45:39.568Z,102584.27
2019-03-28T16:48:09.154Z,102587.08
2019-03-28T16:50:38.660Z,102582.36
2019-03-28T16:53:08.236Z,102577.05
2019-03-28T16:55:37.786Z,102576.36
2019-03-28T16:58:08.270Z,102578.16
2019-03-28T17:00:38.906Z,102579.66
2019-03-28T17:03:08.999Z,102577.46
2019-03-28T17:05:47.173Z,102578.87
2019-03-28T17:08:17.696Z,102577.37
2019-03-28T17:10:49.068Z,102572.33
2019-03-28T17:13:19.646Z,102575.18
2019-03-28T17:15:49.260Z,102573.85
2019-03-28T17:18:19.220Z,102576.70
2019-03-28T17:20:48.937Z,102573.58
2019-03-28T17:23:18.877Z,102575.91
2019-03-28T17:25:48.486Z,102577.61
2019-03-28T17:28:18.194Z,102581.96
2019-03-28T17:30:47.755Z,102576.01
2019-03-28T17:33:17.959Z,102578.16
2019-03-28T17:35:47.754Z,102578.42
2019-03-28T17:38:17.438Z,102579.70
2019-03-28T17:40:46.916Z,102584.38
2019-03-28T17:43:16.426Z,102574.84
2019-03-28T17:45:46.037Z,102584.45
2019-03-28T17:48:15.541Z,102584.53
2019-03-28T17:50:46.057Z,102587.23
2019-03-28T17:53:16.695Z,102584.84
2019-03-28T17:55:46.155Z,102582.31
2019-03-28T17:58:15.814Z,102589.00
2019-03-28T18:00:46.413Z,102580.99
2019-03-28T18:03:30.229Z,102585.28
2019-03-28T18:05:57.924Z,102586.42
2019-03-28T18:08:19.866Z,102583.25
2019-03-28T18:10:49.722Z,102582.08
2019-03-28T18:13:19.157Z,102580.80
2019-03-28T18:15:48.635Z,102588.91
2019-03-28T18:18:18.089Z,102592.63
2019-03-28T18:20:47.636Z,102591.84
2019-03-28T18:23:17.113Z,102594.05
2019-03-28T18:25:46.573Z,102591.03
2019-03-28T18:28:16.049Z,102595.98
2019-03-28T18:30:45.950Z,102601.89
2019-03-28T18:33:15.736Z,102601.39
2019-03-28T18:35:45.235Z,102604.55
2019-03-28T18:38:14.714Z,102607.30
2019-03-28T18:40:44.200Z,102602.91
2019-03-28T18:43:13.791Z,102602.05
2019-03-28T18:45:43.656Z,102603.01
2019-03-28T18:48:26.957Z,102608.69
2019-03-28T18:50:44.763Z,102611.23
2019-03-28T18:53:14.338Z,102616.00
2019-03-28T18:55:43.954Z,102615.94
2019-03-28T18:58:13.750Z,102610.69
2019-03-28T19:00:43.329Z,102617.45
2019-03-28T19:03:13.077Z,102613.89
2019-03-28T19:05:42.721Z,102613.53
2019-03-28T19:08:12.329Z,102619.44
2019-03-28T19:10:42.917Z,102618.99
2019-03-28T19:13:13.853Z,102618.42
2019-03-28T19:15:43.495Z,102613.94
2019-03-28T19:18:13.002Z,102617.82
2019-03-28T19:20:42.674Z,102614.20
2019-03-28T19:23:12.516Z,102620.89
2019-03-28T19:25:42.006Z,102617.32
2019-03-28T19:28:11.584Z,102620.84
2019-03-28T19:30:41.300Z,102620.89
2019-03-28T19:33:11.730Z,102619.92
2019-03-28T19:35:41.302Z,102621.70
2019-03-28T19:38:12.524Z,102616.98
2019-03-28T19:40:42.106Z,102619.89
2019-03-28T19:43:20.296Z,102621.12
2019-03-28T19:45:43.040Z,102621.12
2019-03-28T19:48:12.608Z,102623.83
2019-03-28T19:50:43.041Z,102626.42
2019-03-28T19:53:12.507Z,102627.25
2019-03-28T19:55:42.029Z,102625.41
2019-03-28T19:58:13.763Z,102629.28
2019-03-28T20:00:43.983Z,102632.71
2019-03-28T20:03:13.876Z,102636.95
2019-03-28T20:05:48.067Z,102632.47
2019-03-28T20:08:16.435Z,102635.92
2019-03-28T20:10:45.995Z,102634.30
2019-03-28T20:13:15.469Z,102636.23
2019-03-28T20:15:45.040Z,102635.62
2019-03-28T20:18:14.506Z,102635.42
2019-03-28T20:20:45.538Z,102634.34
2019-03-28T20:23:15.152Z,102633.46
2019-03-28T20:25:44.706Z,102640.50
2019-03-28T20:28:14.737Z,102643.21
2019-03-28T20:30:44.522Z,102637.84
2019-03-28T20:33:14.249Z,102645.66
2019-03-28T20:35:44.077Z,102641.22
2019-03-28T20:38:13.999Z,102639.95
2019-03-28T20:40:43.721Z,102643.92
2019-03-28T20:43:13.460Z,102643.01
2019-03-28T20:45:43.047Z,102642.08
2019-03-28T20:48:13.045Z,102643.81
2019-03-28T20:50:42.715Z,102646.35
2019-03-28T20:53:13.329Z,102641.92
2019-03-28T20:55:43.092Z,102648.70
2019-03-28T20:58:13.473Z,102644.34
2019-03-28T21:00:45.424Z,102647.44
2019-03-28T21:03:15.683Z,102647.28
2019-03-28T21:05:45.914Z,102646.87
2019-03-28T21:08:15.360Z,102647.28
2019-03-28T21:10:45.842Z,102649.47
2019-03-28T21:13:15.385Z,102650.69
2019-03-28T21:15:45.769Z,102645.84
2019-03-28T21:18:15.410Z,102648.56
2019-03-28T21:20:44.892Z,102655.80
2019-03-28T21:23:14.384Z,102652.30
2019-03-28T21:25:44.018Z,102644.63
2019-03-28T21:28:13.965Z,102645.91
2019-03-28T21:30:47.705Z,102649.00
2019-03-28T21:33:15.188Z,102651.66
2019-03-28T21:35:45.111Z,102650.74
2019-03-28T21:38:14.589Z,102652.98
2019-03-28T21:40:44.063Z,102650.80
2019-03-28T21:43:13.877Z,102642.48
2019-03-28T21:45:43.334Z,102647.91
2019-03-28T21:48:12.857Z,102652.44
2019-03-28T21:50:42.671Z,102646.78
2019-03-28T21:53:12.153Z,102653.05
2019-03-28T21:55:54.289Z,102649.78
2019-03-28T21:58:13.293Z,102652.09
2019-03-28T22:00:42.797Z,102644.18
2019-03-28T22:03:12.576Z,102642.50
2019-03-28T22:05:42.466Z,102644.30
2019-03-28T22:08:12.239Z,102646.59
2019-03-28T22:10:42.435Z,102638.98
2019-03-28T22:13:12.863Z,102635.42
2019-03-28T22:15:42.308Z,102638.02
2019-03-28T22:18:11.856Z,102639.34
2019-03-28T22:20:41.313Z,102645.45
2019-03-28T22:23:13.410Z,102645.39
2019-03-28T22:25:41.938Z,102645.86
2019-03-28T22:28:11.503Z,102647.60
2019-03-28T22:30:41.010Z,102653.09
2019-03-28T22:33:10.616Z,102648.33
2019-03-28T22:35:40.055Z,102649.04
2019-03-28T22:38:09.671Z,102645.98
2019-03-28T22:40:39.196Z,102645.69
2019-03-28T22:43:08.720Z,102653.19
2019-03-28T22:45:38.169Z,102651.02
2019-03-28T22:48:10.924Z,102650.20
2019-03-28T22:50:38.866Z,102647.22
2019-03-28T22:53:08.469Z,102655.02
2019-03-28T22:55:37.980Z,102647.22
2019-03-28T22:58:08.202Z,102652.28
2019-03-28T23:00:48.619Z,102649.28
2019-03-28T23:03:20.822Z,102646.63
2019-03-28T23:05:50.579Z,102645.39
2019-03-28T23:08:21.093Z,102651.52
2019-03-28T23:10:50.523Z,102655.65
2019-03-28T23:13:20.085Z,102654.32
2019-03-28T23:15:51.222Z,102658.30
2019-03-28T23:18:20.700Z,102653.91
2019-03-28T23:20:50.378Z,102653.55
2019-03-28T23:23:19.855Z,102651.26
2019-03-28T23:25:49.309Z,102654.32
2019-03-28T23:28:18.991Z,102654.38
2019-03-28T23:30:48.957Z,102653.97
2019-03-28T23:33:18.391Z,102652.91
2019-03-28T23:35:47.876Z,102651.13
2019-03-28T23:38:17.315Z,102648.98
2019-03-28T23:40:46.792Z,102648.62
2019-03-28T23:43:16.332Z,102645.98
2019-03-28T23:45:46.031Z,102651.39
2019-03-28T23:48:15.496Z,102650.18
2019-03-28T23:50:46.019Z,102645.23
2019-03-28T23:53:15.502Z,102643.91
2019-03-28T23:55:45.158Z,102638.60
2019-03-28T23:58:15.218Z,102641.70
